createdAt,value
2018-01-14T00:01:12.859Z,30.07
2018-01-14T00:03:40.329Z,26.77
2018-01-14T00:06:08.607Z,25.37
2018-01-14T00:08:36.041Z,26.87
2018-01-14T00:11:03.497Z,28.40
2018-01-14T00:13:30.965Z,28.73
2018-01-14T00:15:58.420Z,31.40
2018-01-14T00:18:25.877Z,34.53
2018-01-14T00:20:53.341Z,30.10
2018-01-14T00:23:21.562Z,26.30
2018-01-14T00:25:49.021Z,29.57
2018-01-14T00:28:16.477Z,30.10
2018-01-14T00:30:43.949Z,26.47
2018-01-14T00:33:11.409Z,26.90
2018-01-14T00:35:38.865Z,25.03
2018-01-14T00:38:06.324Z,27.23
2018-01-14T00:40:33.789Z,26.27
2018-01-14T00:43:03.263Z,25.97
2018-01-14T00:45:30.752Z,26.00
2018-01-14T00:47:58.209Z,28.50
2018-01-14T00:50:26.365Z,26.10
2018-01-14T00:52:53.818Z,22.70
2018-01-14T00:55:21.276Z,27.13
2018-01-14T00:57:48.739Z,25.83
2018-01-14T01:00:16.206Z,27.37
2018-01-14T01:02:44.610Z,25.90
2018-01-14T01:05:12.065Z,25.67
2018-01-14T01:07:39.526Z,26.43
2018-01-14T01:10:07.012Z,23.50
2018-01-14T01:12:34.473Z,23.80
2018-01-14T01:15:01.925Z,27.00
2018-01-14T01:17:30.159Z,29.73
2018-01-14T01:19:57.611Z,26.50
2018-01-14T01:22:25.085Z,27.37
2018-01-14T01:24:52.534Z,26.23
2018-01-14T01:27:19.988Z,25.80
2018-01-14T01:29:47.428Z,26.53
2018-01-14T01:32:14.889Z,24.90
2018-01-14T01:34:42.352Z,25.10
2018-01-14T01:37:09.837Z,23.10
2018-01-14T01:39:37.291Z,27.50
2018-01-14T01:42:04.753Z,24.10
2018-01-14T01:44:32.206Z,23.43
2018-01-14T01:46:59.669Z,29.27
2018-01-14T01:49:27.124Z,23.40
2018-01-14T01:51:55.348Z,20.83
2018-01-14T01:54:22.806Z,23.07
2018-01-14T01:56:50.262Z,22.87
2018-01-14T01:59:17.720Z,23.73
2018-01-14T02:01:45.181Z,22.67
2018-01-14T02:04:12.632Z,21.30
2018-01-14T02:06:40.376Z,23.70
2018-01-14T02:09:07.821Z,22.90
2018-01-14T02:11:36.036Z,21.53
2018-01-14T02:14:03.484Z,22.50
2018-01-14T02:16:30.944Z,23.90
2018-01-14T02:18:58.400Z,19.90
2018-01-14T02:21:25.863Z,20.17
2018-01-14T02:23:53.321Z,22.10
2018-01-14T02:26:20.789Z,21.43
2018-01-14T02:28:48.249Z,23.80
2018-01-14T02:31:15.697Z,20.50
2018-01-14T02:33:43.164Z,21.50
2018-01-14T02:36:10.629Z,22.13
2018-01-14T02:38:38.098Z,20.87
2018-01-14T02:41:05.582Z,19.53
2018-01-14T02:43:33.805Z,20.83
2018-01-14T02:46:01.260Z,19.07
2018-01-14T02:48:28.714Z,19.93
2018-01-14T02:50:56.171Z,20.80
2018-01-14T02:53:23.628Z,22.03
2018-01-14T02:55:51.085Z,21.17
2018-01-14T02:58:18.609Z,21.57
2018-01-14T03:00:46.062Z,19.37
2018-01-14T03:03:14.280Z,21.93
2018-01-14T03:05:41.728Z,21.70
2018-01-14T03:08:09.190Z,20.53
2018-01-14T03:10:36.647Z,26.67
2018-01-14T03:13:04.112Z,19.90
2018-01-14T03:15:31.568Z,20.07
2018-01-14T03:17:59.040Z,19.77
2018-01-14T03:20:26.507Z,19.57
2018-01-14T03:22:53.973Z,22.10
2018-01-14T03:25:21.765Z,19.80
2018-01-14T03:27:49.974Z,22.47
2018-01-14T03:30:17.425Z,18.23
2018-01-14T03:32:44.876Z,18.17
2018-01-14T03:35:12.332Z,16.07
2018-01-14T03:37:39.800Z,17.80
2018-01-14T03:40:07.256Z,19.40
2018-01-14T03:42:34.709Z,17.43
2018-01-14T03:45:02.168Z,18.90
2018-01-14T03:47:29.632Z,16.53
2018-01-14T03:49:57.089Z,18.60
2018-01-14T03:52:24.553Z,16.97
2018-01-14T03:54:52.022Z,16.83
2018-01-14T03:57:19.474Z,18.20
2018-01-14T03:59:46.929Z,16.03
2018-01-14T04:02:14.389Z,18.87
2018-01-14T04:04:41.834Z,16.77
2018-01-14T04:07:09.306Z,14.97
2018-01-14T04:09:36.763Z,15.40
2018-01-14T04:12:04.212Z,15.37
2018-01-14T04:14:31.652Z,17.30
2018-01-14T04:16:59.109Z,17.63
2018-01-14T04:19:26.580Z,17.80
2018-01-14T04:21:54.045Z,17.53
2018-01-14T04:24:21.497Z,16.97
2018-01-14T04:26:48.956Z,14.57
2018-01-14T04:29:16.405Z,17.07
2018-01-14T04:31:43.867Z,16.70
2018-01-14T04:34:11.304Z,14.90
2018-01-14T04:36:38.768Z,17.10
2018-01-14T04:39:06.223Z,16.57
2018-01-14T04:41:33.676Z,13.00
2018-01-14T04:44:01.133Z,16.93
2018-01-14T04:46:28.626Z,20.87
2018-01-14T04:48:56.069Z,13.80
2018-01-14T04:51:23.529Z,15.93
2018-01-14T04:53:50.988Z,14.97
2018-01-14T04:56:18.445Z,17.17
2018-01-14T04:58:45.905Z,15.03
2018-01-14T05:01:13.362Z,17.97
2018-01-14T05:03:40.816Z,17.13
2018-01-14T05:06:09.042Z,16.47
2018-01-14T05:08:37.261Z,16.13
2018-01-14T05:11:04.721Z,15.90
2018-01-14T05:13:32.184Z,15.80
2018-01-14T05:15:59.637Z,16.30
2018-01-14T05:18:27.109Z,16.30
2018-01-14T05:20:55.320Z,19.57
2018-01-14T05:23:23.544Z,16.00
2018-01-14T05:25:51.021Z,16.67
2018-01-14T05:28:18.485Z,16.93
2018-01-14T05:30:45.934Z,18.07
2018-01-14T05:33:13.388Z,17.10
2018-01-14T05:35:40.857Z,16.00
2018-01-14T05:38:08.313Z,14.00
2018-01-14T05:40:35.765Z,15.40
2018-01-14T05:43:03.229Z,18.37
2018-01-14T05:45:30.690Z,15.10
2018-01-14T05:47:58.148Z,18.20
2018-01-14T05:50:26.125Z,16.60
2018-01-14T05:52:53.584Z,14.60
2018-01-14T05:55:21.804Z,16.17
2018-01-14T05:57:49.261Z,13.90
2018-01-14T06:00:16.721Z,16.27
2018-01-14T06:02:44.177Z,14.50
2018-01-14T06:05:11.645Z,16.40
2018-01-14T06:07:39.111Z,17.20
2018-01-14T06:10:06.574Z,15.10
2018-01-14T06:12:34.013Z,15.53
2018-01-14T06:15:01.474Z,17.43
2018-01-14T06:17:28.927Z,15.67
2018-01-14T06:19:56.395Z,13.80
2018-01-14T06:22:23.848Z,16.93
2018-01-14T06:24:51.308Z,14.80
2018-01-14T06:27:18.765Z,15.50
2018-01-14T06:29:46.220Z,18.00
2018-01-14T06:32:13.677Z,14.20
2018-01-14T06:34:41.892Z,14.97
2018-01-14T06:37:10.137Z,15.60
2018-01-14T06:39:37.602Z,17.10
2018-01-14T06:42:05.041Z,12.90
2018-01-14T06:44:32.497Z,15.27
2018-01-14T06:46:59.957Z,14.63
2018-01-14T06:49:27.416Z,15.23
2018-01-14T06:51:54.877Z,14.70
2018-01-14T06:54:22.333Z,15.33
2018-01-14T06:56:49.805Z,14.50
2018-01-14T06:59:17.267Z,16.10
2018-01-14T07:01:44.713Z,13.80
2018-01-14T07:04:12.181Z,16.60
2018-01-14T07:06:39.637Z,15.43
2018-01-14T07:09:07.087Z,15.80
2018-01-14T07:11:34.548Z,15.53
2018-01-14T07:14:01.993Z,15.67
2018-01-14T07:16:29.450Z,16.83
2018-01-14T07:18:56.908Z,17.40
2018-01-14T07:21:24.361Z,15.27
2018-01-14T07:23:51.812Z,17.00
2018-01-14T07:26:19.272Z,14.80
2018-01-14T07:28:46.756Z,18.83
2018-01-14T07:31:14.214Z,15.50
2018-01-14T07:33:41.661Z,14.93
2018-01-14T07:36:09.104Z,15.10
2018-01-14T07:38:36.557Z,14.57
2018-01-14T07:41:04.778Z,21.80
2018-01-14T07:43:32.993Z,23.07
2018-01-14T07:46:00.485Z,29.30
2018-01-14T07:48:27.930Z,30.70
2018-01-14T07:50:57.293Z,32.60
2018-01-14T07:53:24.742Z,33.73
2018-01-14T07:55:52.977Z,33.97
2018-01-14T07:58:20.421Z,31.27
2018-01-14T08:00:47.893Z,37.60
2018-01-14T08:03:15.349Z,37.60
2018-01-14T08:05:42.802Z,36.00
2018-01-14T08:08:10.260Z,33.93
2018-01-14T08:10:37.747Z,40.53
2018-01-14T08:13:05.185Z,39.00
2018-01-14T08:15:34.140Z,35.80
2018-01-14T08:18:01.672Z,42.10
2018-01-14T08:20:30.223Z,35.60
2018-01-14T08:22:57.677Z,34.73
2018-01-14T08:25:25.135Z,33.60
2018-01-14T08:27:52.628Z,33.50
2018-01-14T08:30:20.088Z,30.53
2018-01-14T08:32:47.544Z,28.43
2018-01-14T08:35:14.985Z,30.13
2018-01-14T08:37:43.244Z,27.40
2018-01-14T08:40:10.697Z,31.13
2018-01-14T08:42:38.140Z,30.90
2018-01-14T08:45:05.593Z,27.70
2018-01-14T08:47:33.053Z,26.73
2018-01-14T08:50:00.508Z,31.10
2018-01-14T08:52:27.965Z,27.67
2018-01-14T08:54:55.412Z,29.13
2018-01-14T08:57:22.882Z,33.63
2018-01-14T08:59:50.337Z,25.97
2018-01-14T09:02:17.785Z,30.60
2018-01-14T09:04:45.254Z,29.10
2018-01-14T09:07:12.706Z,26.80
2018-01-14T09:09:40.235Z,28.93
2018-01-14T09:12:07.777Z,26.50
2018-01-14T09:14:35.227Z,28.03
2018-01-14T09:17:02.678Z,27.27
2018-01-14T09:19:30.893Z,30.93
2018-01-14T09:21:58.343Z,25.97
2018-01-14T09:24:25.800Z,26.17
2018-01-14T09:26:54.013Z,25.07
2018-01-14T09:29:21.509Z,25.57
2018-01-14T09:31:49.715Z,27.97
2018-01-14T09:34:17.188Z,25.60
2018-01-14T09:36:44.642Z,27.30
2018-01-14T09:39:12.109Z,35.17
2018-01-14T09:41:39.556Z,27.47
2018-01-14T09:44:07.012Z,26.17
2018-01-14T09:46:34.463Z,29.40
2018-01-14T09:49:01.916Z,26.20
2018-01-14T09:51:29.364Z,25.23
2018-01-14T09:53:56.818Z,26.00
2018-01-14T09:56:24.316Z,25.57
2018-01-14T09:58:51.754Z,25.43
2018-01-14T10:01:19.302Z,24.33
2018-01-14T10:03:46.772Z,23.80
2018-01-14T10:06:14.214Z,25.67
2018-01-14T10:08:41.653Z,22.50
2018-01-14T10:11:09.105Z,25.53
2018-01-14T10:13:36.552Z,31.37
2018-01-14T10:16:04.776Z,23.93
2018-01-14T10:18:32.242Z,26.13
2018-01-14T10:20:59.699Z,23.77
2018-01-14T10:23:27.156Z,24.20
2018-01-14T10:25:54.617Z,20.63
2018-01-14T10:28:22.044Z,21.10
2018-01-14T10:30:49.524Z,23.60
2018-01-14T10:33:16.969Z,25.00
2018-01-14T10:35:44.429Z,21.87
2018-01-14T10:38:11.884Z,20.27
2018-01-14T10:40:39.340Z,21.50
2018-01-14T10:43:06.804Z,24.13
2018-01-14T10:45:34.269Z,21.13
2018-01-14T10:48:01.721Z,24.33
2018-01-14T10:50:29.193Z,22.50
2018-01-14T10:52:56.637Z,22.17
2018-01-14T10:55:24.103Z,24.10
2018-01-14T10:57:51.562Z,23.93
2018-01-14T11:00:19.013Z,23.13
2018-01-14T11:02:46.513Z,25.70
2018-01-14T11:05:14.728Z,22.47
2018-01-14T11:07:42.231Z,26.47
2018-01-14T11:10:09.675Z,28.60
2018-01-14T11:12:37.145Z,28.87
2018-01-14T11:15:04.593Z,40.43
2018-01-14T11:17:32.049Z,32.90
2018-01-14T11:19:59.500Z,31.93
2018-01-14T11:22:26.965Z,29.10
2018-01-14T11:24:54.428Z,35.03
2018-01-14T11:27:21.917Z,32.93
2018-01-14T11:30:07.231Z,28.00
2018-01-14T11:32:34.688Z,26.90
2018-01-14T11:35:02.146Z,27.20
2018-01-14T11:37:29.631Z,28.23
2018-01-14T11:39:57.080Z,25.87
2018-01-14T11:42:24.541Z,27.27
2018-01-14T11:44:51.997Z,26.73
2018-01-14T11:47:19.464Z,26.20
2018-01-14T11:49:46.921Z,25.77
2018-01-14T11:52:14.387Z,27.43
2018-01-14T11:54:42.606Z,26.80
2018-01-14T11:57:10.081Z,26.77
2018-01-14T11:59:37.539Z,27.23
2018-01-14T12:02:05.001Z,28.83
2018-01-14T12:04:32.453Z,36.13
2018-01-14T12:06:59.904Z,34.70
2018-01-14T12:09:27.368Z,35.00
2018-01-14T12:11:54.822Z,31.70
2018-01-14T12:14:22.283Z,29.97
2018-01-14T12:16:49.736Z,29.93
2018-01-14T12:19:17.192Z,29.90
2018-01-14T12:21:44.664Z,27.50
2018-01-14T12:24:12.132Z,26.20
2018-01-14T12:26:39.696Z,29.97
2018-01-14T12:29:07.176Z,27.47
2018-01-14T12:31:35.437Z,28.60
2018-01-14T12:37:15.271Z,27.53
2018-01-14T12:39:42.754Z,28.50
2018-01-14T12:42:10.208Z,25.70
2018-01-14T12:44:37.677Z,25.97
2018-01-14T12:47:05.134Z,24.60
2018-01-14T12:49:32.595Z,28.37
2018-01-14T12:52:00.054Z,24.63
2018-01-14T12:54:28.288Z,26.80
2018-01-14T12:56:55.756Z,24.63
2018-01-14T12:59:23.211Z,26.13
2018-01-14T13:01:50.666Z,27.80
2018-01-14T13:04:18.128Z,29.90
2018-01-14T13:06:45.590Z,25.43
2018-01-14T13:09:13.061Z,24.40
2018-01-14T13:11:40.514Z,26.20
2018-01-14T13:14:07.973Z,25.70
2018-01-14T13:16:35.429Z,25.57
2018-01-14T13:19:02.888Z,26.40
2018-01-14T13:21:30.344Z,26.27
2018-01-14T13:23:57.797Z,27.70
2018-01-14T13:26:25.261Z,30.10
2018-01-14T13:28:52.712Z,33.67
2018-01-14T13:31:20.164Z,30.53
2018-01-14T13:33:47.644Z,33.10
2018-01-14T13:36:15.106Z,31.13
2018-01-14T13:38:42.558Z,33.33
2018-01-14T13:41:10.021Z,32.87
2018-01-14T13:43:38.243Z,31.97
2018-01-14T13:46:05.709Z,32.13
2018-01-14T13:48:33.174Z,37.70
2018-01-14T13:51:00.699Z,37.53
2018-01-14T13:53:28.131Z,35.63
2018-01-14T13:55:56.345Z,31.80
2018-01-14T13:58:23.802Z,35.47
2018-01-14T14:00:51.256Z,37.40
2018-01-14T14:03:18.711Z,38.10
2018-01-14T14:05:46.197Z,33.73
2018-01-14T14:08:13.657Z,32.63
2018-01-14T14:10:41.133Z,38.73
2018-01-14T14:13:08.576Z,32.47
2018-01-14T14:15:36.048Z,37.03
2018-01-14T14:18:03.501Z,34.80
2018-01-14T14:20:30.972Z,36.57
2018-01-14T14:22:58.425Z,38.00
2018-01-14T14:25:25.876Z,35.97
2018-01-14T14:27:53.352Z,36.60
2018-01-14T14:30:20.801Z,40.40
2018-01-14T14:32:48.273Z,40.47
2018-01-14T14:35:16.491Z,40.00
2018-01-14T14:37:43.944Z,42.93
2018-01-14T14:40:11.418Z,46.30
2018-01-14T14:42:38.879Z,43.87
2018-01-14T14:45:06.344Z,47.77
2018-01-14T14:47:33.821Z,44.00
2018-01-14T14:50:01.268Z,38.33
2018-01-14T14:52:28.721Z,40.63
2018-01-14T14:54:56.182Z,44.90
2018-01-14T14:57:23.636Z,37.13
2018-01-14T14:59:51.095Z,41.77
2018-01-14T15:02:18.565Z,39.97
2018-01-14T15:04:46.029Z,36.77
2018-01-14T15:07:13.519Z,38.87
2018-01-14T15:09:42.590Z,36.47
2018-01-14T15:12:10.814Z,43.63
2018-01-14T15:14:38.279Z,39.57
2018-01-14T15:17:05.748Z,42.87
2018-01-14T15:19:33.225Z,41.97
2018-01-14T15:22:00.673Z,43.73
2018-01-14T15:24:28.129Z,41.30
2018-01-14T15:26:55.589Z,37.73
2018-01-14T15:29:23.040Z,39.00
2018-01-14T15:31:50.514Z,39.40
2018-01-14T15:34:17.963Z,39.13
2018-01-14T15:36:45.420Z,43.73
2018-01-14T15:39:12.881Z,46.30
2018-01-14T15:41:43.869Z,47.50
2018-01-14T15:44:12.101Z,41.40
2018-01-14T15:46:39.552Z,38.67
2018-01-14T15:49:07.057Z,43.30
2018-01-14T15:51:35.388Z,43.27
2018-01-14T15:54:02.849Z,38.03
2018-01-14T15:56:31.068Z,46.80
2018-01-14T15:58:59.286Z,41.83
2018-01-14T16:01:26.740Z,39.97
2018-01-14T16:03:54.201Z,43.10
2018-01-14T16:06:21.673Z,50.20
2018-01-14T16:08:49.125Z,52.00
2018-01-14T16:11:16.572Z,51.10
2018-01-14T16:13:44.052Z,54.67
2018-01-14T16:16:11.494Z,50.23
2018-01-14T16:18:38.951Z,52.17
2018-01-14T16:21:06.405Z,45.43
2018-01-14T16:23:33.856Z,47.77
2018-01-14T16:26:01.313Z,47.33
2018-01-14T16:28:28.767Z,52.20
2018-01-14T16:30:56.293Z,43.13
2018-01-14T16:33:23.747Z,45.80
2018-01-14T16:35:51.223Z,48.70
2018-01-14T16:38:19.420Z,54.53
2018-01-14T16:40:47.637Z,55.93
2018-01-14T16:43:16.060Z,55.30
2018-01-14T16:45:43.522Z,50.13
2018-01-14T16:48:10.975Z,47.40
2018-01-14T16:50:38.434Z,49.63
2018-01-14T16:53:05.896Z,48.00
2018-01-14T16:55:33.394Z,48.77
2018-01-14T16:58:01.588Z,54.10
2018-01-14T17:00:31.737Z,48.67
2018-01-14T17:02:59.953Z,45.27
2018-01-14T17:05:27.413Z,43.43
2018-01-14T17:07:56.368Z,45.77
2018-01-14T17:10:23.832Z,46.77
2018-01-14T17:12:51.278Z,48.40
2018-01-14T17:15:18.757Z,44.30
2018-01-14T17:17:46.210Z,47.90
2018-01-14T17:20:13.662Z,50.60
2018-01-14T17:22:41.108Z,45.83
2018-01-14T17:25:08.557Z,43.40
2018-01-14T17:27:36.020Z,48.13
2018-01-14T17:30:04.246Z,51.43
2018-01-14T17:32:31.688Z,45.30
2018-01-14T17:34:59.938Z,45.90
2018-01-14T17:37:27.385Z,46.40
2018-01-14T17:39:54.837Z,47.37
2018-01-14T17:42:22.276Z,47.93
2018-01-14T17:44:50.620Z,48.70
2018-01-14T17:47:18.072Z,49.90
2018-01-14T17:49:45.538Z,51.00
2018-01-14T17:52:13.000Z,50.30
2018-01-14T17:54:40.449Z,58.47
2018-01-14T17:57:07.917Z,49.07
2018-01-14T17:59:35.368Z,47.83
2018-01-14T18:02:02.826Z,56.30
2018-01-14T18:04:30.279Z,47.93
2018-01-14T18:06:57.738Z,52.00
2018-01-14T18:09:25.197Z,49.67
2018-01-14T18:11:52.653Z,45.93
2018-01-14T18:14:20.113Z,51.10
2018-01-14T18:16:59.405Z,49.93
2018-01-14T18:19:26.898Z,61.63
2018-01-14T18:21:54.344Z,55.70
2018-01-14T18:24:21.803Z,61.07
2018-01-14T18:26:49.268Z,54.00
2018-01-14T18:29:16.725Z,53.17
2018-01-14T18:31:44.206Z,55.00
2018-01-14T18:34:11.689Z,50.50
2018-01-14T18:36:39.120Z,53.10
2018-01-14T18:39:06.573Z,50.30
2018-01-14T18:41:34.033Z,52.53
2018-01-14T18:44:01.494Z,57.00
2018-01-14T18:46:28.951Z,52.67
2018-01-14T18:48:56.408Z,46.23
2018-01-14T18:51:23.864Z,56.53
2018-01-14T18:53:51.319Z,51.53
2018-01-14T18:56:18.781Z,48.30
2018-01-14T18:58:46.233Z,52.77
2018-01-14T19:01:13.680Z,49.30
2018-01-14T19:03:41.137Z,51.20
2018-01-14T19:06:08.608Z,50.53
2018-01-14T19:08:36.061Z,51.17
2018-01-14T19:11:03.525Z,48.50
2018-01-14T19:13:31.762Z,54.37
2018-01-14T19:15:59.244Z,48.63
2018-01-14T19:18:26.738Z,49.80
2018-01-14T19:20:54.176Z,51.87
2018-01-14T19:23:22.405Z,54.97
2018-01-14T19:25:49.920Z,48.90
2018-01-14T19:28:17.337Z,46.27
2018-01-14T19:30:44.912Z,53.93
2018-01-14T19:33:12.437Z,49.03
2018-01-14T19:35:39.832Z,51.63
2018-01-14T19:38:08.057Z,50.43
2018-01-14T19:40:35.505Z,50.47
2018-01-14T19:43:03.741Z,57.73
2018-01-14T19:45:31.196Z,53.27
2018-01-14T19:47:58.652Z,51.87
2018-01-14T19:50:27.165Z,52.40
2018-01-14T19:52:54.620Z,56.93
2018-01-14T19:55:22.070Z,49.97
2018-01-14T19:57:50.293Z,51.10
2018-01-14T20:00:17.753Z,49.77
2018-01-14T20:02:45.295Z,48.70
2018-01-14T20:05:12.748Z,51.30
2018-01-14T20:07:40.237Z,50.80
2018-01-14T20:10:07.691Z,46.67
2018-01-14T20:12:35.148Z,56.30
2018-01-14T20:15:02.606Z,53.40
2018-01-14T20:17:30.069Z,50.40
2018-01-14T20:19:57.534Z,55.87
2018-01-14T20:22:24.988Z,48.57
2018-01-14T20:24:52.453Z,46.67
2018-01-14T20:27:19.904Z,50.40
2018-01-14T20:29:47.376Z,48.80
2018-01-14T20:32:14.834Z,53.67
2018-01-14T20:34:42.290Z,50.83
2018-01-14T20:37:13.669Z,50.27
2018-01-14T20:39:42.967Z,51.10
2018-01-14T20:42:11.246Z,58.27
2018-01-14T20:44:44.402Z,55.30
2018-01-14T20:47:11.871Z,48.97
2018-01-14T20:49:39.329Z,51.30
2018-01-14T20:52:06.780Z,52.33
2018-01-14T20:54:34.238Z,54.43
2018-01-14T20:57:01.685Z,49.40
2018-01-14T20:59:29.155Z,53.70
2018-01-14T21:01:56.597Z,50.23
2018-01-14T21:04:26.933Z,51.20
2018-01-14T21:06:54.394Z,49.33
2018-01-14T21:09:21.845Z,46.80
2018-01-14T21:11:50.796Z,48.00
2018-01-14T21:14:18.259Z,52.57
2018-01-14T21:16:45.713Z,47.33
2018-01-14T21:19:13.174Z,57.73
2018-01-14T21:21:40.629Z,47.27
2018-01-14T21:24:08.115Z,45.60
2018-01-14T21:26:35.544Z,48.67
2018-01-14T21:29:03.758Z,49.87
2018-01-14T21:31:31.212Z,49.43
2018-01-14T21:33:58.658Z,49.10
2018-01-14T21:36:26.117Z,54.57
2018-01-14T21:38:53.568Z,47.10
2018-01-14T21:41:21.028Z,51.07
2018-01-14T21:43:48.485Z,53.13
2018-01-14T21:46:15.947Z,51.90
2018-01-14T21:48:43.406Z,51.67
2018-01-14T21:51:10.864Z,48.20
2018-01-14T21:53:38.323Z,46.73
2018-01-14T21:56:05.772Z,46.87
2018-01-14T21:58:33.258Z,50.53
2018-01-14T22:01:01.481Z,51.23
2018-01-14T22:03:28.928Z,49.40
2018-01-14T22:05:56.403Z,49.73
2018-01-14T22:08:23.848Z,51.53
2018-01-14T22:10:51.311Z,49.70
2018-01-14T22:13:18.764Z,46.23
2018-01-14T22:15:46.227Z,46.77
2018-01-14T22:18:13.681Z,47.13
2018-01-14T22:20:41.143Z,43.33
2018-01-14T22:23:08.595Z,44.20
2018-01-14T22:25:36.053Z,48.33
2018-01-14T22:28:03.508Z,44.50
2018-01-14T22:30:30.975Z,47.80
2018-01-14T22:32:59.189Z,47.50
2018-01-14T22:35:26.645Z,50.23
2018-01-14T22:37:54.139Z,49.43
2018-01-14T22:40:21.549Z,44.60
2018-01-14T22:42:49.058Z,46.67
2018-01-14T22:45:16.500Z,44.60
2018-01-14T22:47:43.964Z,44.57
2018-01-14T22:50:11.413Z,45.40
2018-01-14T22:52:38.879Z,45.73
2018-01-14T22:55:07.092Z,43.83
2018-01-14T22:57:34.553Z,47.17
2018-01-14T23:00:02.009Z,48.30
2018-01-14T23:02:29.472Z,44.40
2018-01-14T23:04:56.947Z,43.30
2018-01-14T23:07:24.404Z,46.60
2018-01-14T23:09:51.864Z,46.00
2018-01-14T23:12:19.312Z,44.13
2018-01-14T23:14:52.514Z,43.10
2018-01-14T23:17:20.021Z,43.03
2018-01-14T23:19:48.245Z,42.60
2018-01-14T23:22:17.197Z,41.57
2018-01-14T23:24:44.661Z,46.60
2018-01-14T23:27:12.108Z,45.67
2018-01-14T23:29:39.565Z,41.80
2018-01-14T23:32:07.031Z,43.00
2018-01-14T23:34:34.485Z,43.77
2018-01-14T23:37:01.936Z,46.03
2018-01-14T23:39:29.392Z,39.20
2018-01-14T23:41:56.853Z,46.43
2018-01-14T23:44:24.308Z,41.37
2018-01-14T23:46:51.773Z,40.37
2018-01-14T23:49:20.009Z,42.23
2018-01-14T23:51:48.216Z,42.33
2018-01-14T23:54:15.673Z,41.60
2018-01-14T23:56:43.901Z,39.80
2018-01-14T23:59:11.356Z,41.30
